FredonyerEastRWIS Atmospheric Data: 01/17/2020 Summary  Detailed Graphs  Station List

  Temperature     Wind Precipitation Visibility
Timestamp Air Wet
Bulb
Dew-
point
24-hr
Max
24-hr
Min
Relative
Humidity
Atmospheric
Pressure
Avg
Speed
Avg
Dir
Spot
Speed
Spot
Dir
Max
Speed
Max
Dir
  Rate Situation Start End 1 hr 3 hr 6 hr 12 hr 24 hr   Situation
Date Time °F °F °F °F °F % in Hg mph ° mph ° mph ° Y/N in/hr text Date Time Date Time in in in in in mi text
01/17/2020 12:08 AM 24.98 24.08 22.28 33.44 24.80 89.0 Not Reported 3.58 W 1.57 NW 6.26 W No 0.000 No Precipitation 01/16/2020 10:17 PM 01/16/2020 10:22 PM 0.004 0.008 0.055 0.217 0.311 Not Reported Not Reported
01/17/2020 12:23 AM 25.16 24.44 22.64 33.44 24.80 89.0 Not Reported 3.58 SW 4.25 S 5.59 NW No 0.000 No Precipitation 01/16/2020 10:17 PM 01/16/2020 10:22 PM 0.000 0.008 0.055 0.205 0.311 Not Reported Not Reported
01/17/2020 12:38 AM 25.16 24.08 22.10 33.44 24.80 88.0 Not Reported 2.91 S 3.58 NW 6.26 N No 0.000 No Precipitation 01/16/2020 10:17 PM 01/16/2020 10:22 PM 0.000 0.008 0.055 0.205 0.311 Not Reported Not Reported
01/17/2020 12:53 AM 25.16 24.26 22.10 33.44 24.80 87.0 Not Reported 2.68 W 2.46 NW 4.70 W No 0.000 No Precipitation 01/16/2020 10:17 PM 01/16/2020 10:22 PM 0.000 0.008 0.051 0.201 0.311 Not Reported Not Reported
01/17/2020 01:08 AM 24.98 23.90 21.92 33.44 24.80 87.0 Not Reported 2.01 W 3.80 W 4.47 W No 0.000 No Precipitation 01/16/2020 10:17 PM 01/16/2020 10:22 PM 0.000 0.008 0.043 0.181 0.311 Not Reported Not Reported
01/17/2020 01:23 AM 25.16 24.08 21.74 33.44 24.80 86.0 Not Reported 4.25 SW 1.79 SW 4.70 SW No 0.000 No Precipitation 01/16/2020 10:17 PM 01/16/2020 10:22 PM 0.000 0.004 0.039 0.165 0.311 Not Reported Not Reported
01/17/2020 01:38 AM 25.16 24.08 21.92 33.44 24.80 87.0 Not Reported 2.46 W 5.14 NW 5.82 SW No 0.000 No Precipitation 01/16/2020 10:17 PM 01/16/2020 10:22 PM 0.000 0.004 0.031 0.150 0.311 Not Reported Not Reported
01/17/2020 01:53 AM 25.16 24.26 21.92 33.44 24.80 87.0 Not Reported 3.36 NW 3.13 W 4.03 NW No 0.000 No Precipitation 01/16/2020 10:17 PM 01/16/2020 10:22 PM 0.000 0.004 0.020 0.142 0.311 Not Reported Not Reported
01/17/2020 02:09 AM 24.98 23.90 21.74 33.44 24.80 87.0 Not Reported 1.57 W 2.46 NW 6.26 SW No 0.000 No Precipitation 01/16/2020 10:17 PM 01/16/2020 10:22 PM 0.000 0.004 0.020 0.130 0.311 Not Reported Not Reported
01/17/2020 02:23 AM 25.16 24.08 22.10 33.44 24.80 87.0 Not Reported 2.01 SW 4.47 SW 4.70 SW No 0.000 No Precipitation 01/16/2020 10:17 PM 01/16/2020 10:22 PM 0.000 0.000 0.020 0.118 0.311 Not Reported Not Reported
01/17/2020 02:40 AM 25.34 24.26 22.28 33.44 24.80 88.0 Not Reported 3.58 W 4.25 NW 5.14 W No 0.000 No Precipitation 01/16/2020 10:17 PM 01/16/2020 10:22 PM 0.000 0.000 0.016 0.118 0.311 Not Reported Not Reported
01/17/2020 02:53 AM 25.16 24.26 21.92 33.44 24.80 87.0 Not Reported 4.25 SW 4.25 S 6.04 SW No 0.000 No Precipitation 01/16/2020 10:17 PM 01/16/2020 10:22 PM 0.000 0.000 0.008 0.110 0.311 Not Reported Not Reported
01/17/2020 03:09 AM 25.16 24.26 22.10 33.44 24.80 87.0 Not Reported 3.36 W 3.58 NW 4.92 NW No 0.000 No Precipitation 01/16/2020 10:17 PM 01/16/2020 10:22 PM 0.000 0.000 0.008 0.102 0.311 Not Reported Not Reported
01/17/2020 03:23 AM 24.98 23.90 21.20 33.44 24.80 85.0 Not Reported 2.68 W 4.03 W 4.70 W No 0.000 No Precipitation 01/16/2020 10:17 PM 01/16/2020 10:22 PM 0.000 0.000 0.008 0.091 0.311 Not Reported Not Reported
01/17/2020 03:38 AM 24.80 23.54 20.66 33.44 24.80 83.0 Not Reported 3.13 W 3.13 W 6.93 W No 0.000 No Precipitation 01/16/2020 10:17 PM 01/16/2020 10:22 PM 0.000 0.000 0.008 0.083 0.311 Not Reported Not Reported
01/17/2020 03:53 AM 24.44 23.18 20.12 33.44 24.44 83.0 Not Reported 2.24 W 0.89 W 4.25 NW No 0.000 No Precipitation 01/16/2020 10:17 PM 01/16/2020 10:22 PM 0.000 0.000 0.008 0.079 0.311 Not Reported Not Reported
01/17/2020 04:08 AM 24.44 23.18 20.12 33.44 24.26 83.0 Not Reported 4.25 SW 4.03 NW 6.93 W No 0.000 No Precipitation 01/16/2020 10:17 PM 01/16/2020 10:22 PM 0.000 0.000 0.008 0.075 0.311 Not Reported Not Reported
01/17/2020 04:23 AM 24.08 22.64 19.40 33.44 23.90 81.0 Not Reported 4.25 W 2.01 W 5.59 SW No 0.000 No Precipitation 01/16/2020 10:17 PM 01/16/2020 10:22 PM 0.000 0.000 0.004 0.071 0.311 Not Reported Not Reported
01/17/2020 04:38 AM 23.36 22.10 19.04 33.44 23.36 83.0 Not Reported 2.91 SW 2.01 NW 6.93 SW No 0.000 No Precipitation 01/16/2020 10:17 PM 01/16/2020 10:22 PM 0.000 0.000 0.004 0.067 0.311 Not Reported Not Reported
01/17/2020 04:53 AM 22.82 21.74 19.22 33.44 22.82 85.0 Not Reported 2.24 SW 0.89 SW 3.80 W No 0.000 No Precipitation 01/16/2020 10:17 PM 01/16/2020 10:22 PM 0.000 0.000 0.004 0.063 0.311 Not Reported Not Reported
01/17/2020 05:08 AM 22.10 21.38 19.40 33.44 21.92 88.0 Not Reported 1.12 W 1.57 S 4.25 SW No 0.000 No Precipitation 01/16/2020 10:17 PM 01/16/2020 10:22 PM 0.000 0.000 0.004 0.063 0.311 Not Reported Not Reported
01/17/2020 05:23 AM 23.18 22.28 19.94 33.44 21.92 87.0 Not Reported 1.34 SW 1.34 W 2.91 S No 0.000 No Precipitation 01/16/2020 10:17 PM 01/16/2020 10:22 PM 0.000 0.000 0.000 0.059 0.311 Not Reported Not Reported
01/17/2020 05:38 AM 23.72 22.64 20.30 33.44 21.92 86.0 Not Reported 2.24 W 2.24 W 5.37 NW No 0.000 No Precipitation 01/16/2020 10:17 PM 01/16/2020 10:22 PM 0.000 0.000 0.000 0.059 0.311 Not Reported Not Reported
01/17/2020 05:53 AM 24.08 22.82 20.30 33.44 21.92 85.0 Not Reported 2.46 NW 1.34 W 3.58 NW No 0.000 No Precipitation 01/16/2020 10:17 PM 01/16/2020 10:22 PM 0.000 0.000 0.000 0.059 0.311 Not Reported Not Reported
01/17/2020 06:08 AM 23.90 22.82 20.30 33.44 21.92 85.0 Not Reported 2.91 NW 2.91 NW 7.38 NW No 0.000 No Precipitation 01/16/2020 10:17 PM 01/16/2020 10:22 PM 0.000 0.000 0.000 0.055 0.311 Not Reported Not Reported
01/17/2020 06:23 AM 24.26 23.00 19.94 33.44 21.92 82.0 Not Reported 3.36 W 1.79 W 5.14 W No 0.000 No Precipitation 01/16/2020 10:17 PM 01/16/2020 10:22 PM 0.000 0.000 0.000 0.055 0.311 Not Reported Not Reported
01/17/2020 06:38 AM 23.72 22.46 19.58 33.44 21.92 83.0 Not Reported 1.79 SW 1.34 W 3.58 N No 0.000 No Precipitation 01/16/2020 10:17 PM 01/16/2020 10:22 PM 0.000 0.000 0.000 0.055 0.311 Not Reported Not Reported
01/17/2020 06:53 AM 23.54 22.28 19.58 33.44 21.92 84.0 Not Reported 3.80 NW 4.03 NW 4.25 NW No 0.000 No Precipitation 01/16/2020 10:17 PM 01/16/2020 10:22 PM 0.000 0.000 0.000 0.051 0.311 Not Reported Not Reported
01/17/2020 07:08 AM 23.00 22.10 19.58 33.44 21.92 85.0 Not Reported 1.57 W 2.91 NW 4.25 W No 0.000 No Precipitation 01/16/2020 10:17 PM 01/16/2020 10:22 PM 0.000 0.000 0.000 0.043 0.311 Not Reported Not Reported
01/17/2020 07:23 AM 23.36 22.10 19.22 33.44 21.92 83.0 Not Reported 3.13 NW 1.34 SW 4.25 W No 0.000 No Precipitation 01/16/2020 10:17 PM 01/16/2020 10:22 PM 0.000 0.000 0.000 0.039 0.311 Not Reported Not Reported
01/17/2020 07:38 AM 22.82 21.56 18.68 33.44 21.92 84.0 Not Reported 3.13 W 3.13 NW 4.25 SW No 0.000 No Precipitation 01/16/2020 10:17 PM 01/16/2020 10:22 PM 0.000 0.000 0.000 0.031 0.311 Not Reported Not Reported
01/17/2020 07:53 AM 22.10 21.02 18.86 33.44 21.38 87.0 Not Reported 2.24 NW 1.12 NW 3.36 N No 0.000 No Precipitation 01/16/2020 10:17 PM 01/16/2020 10:22 PM 0.000 0.000 0.000 0.020 0.311 Not Reported Not Reported
01/17/2020 08:09 AM 23.54 22.10 18.50 33.44 21.38 80.0 Not Reported 3.13 SW 4.47 W 5.82 W No 0.000 No Precipitation 01/16/2020 10:17 PM 01/16/2020 10:22 PM 0.000 0.000 0.000 0.020 0.311 Not Reported Not Reported
01/17/2020 08:23 AM 25.16 23.18 19.04 33.08 21.38 77.0 Not Reported 2.01 E 1.34 SW 5.82 S No 0.000 No Precipitation 01/16/2020 10:17 PM 01/16/2020 10:22 PM 0.000 0.000 0.000 0.020 0.311 Not Reported Not Reported
01/17/2020 08:38 AM 25.16 23.18 18.86 32.54 21.38 76.0 Not Reported 1.79 S 1.12 S 4.70 SW No 0.000 No Precipitation 01/16/2020 10:17 PM 01/16/2020 10:22 PM 0.000 0.000 0.000 0.016 0.311 Not Reported Not Reported
01/17/2020 08:53 AM 25.16 23.36 19.22 32.18 21.38 77.0 Not Reported 3.80 SE 2.24 S 4.25 SE No 0.000 No Precipitation 01/16/2020 10:17 PM 01/16/2020 10:22 PM 0.000 0.000 0.000 0.008 0.311 Not Reported Not Reported
01/17/2020 09:08 AM 26.24 24.08 19.58 32.00 21.38 75.0 Not Reported 1.12 W 0.67 NW 4.70 S No 0.000 No Precipitation 01/16/2020 10:17 PM 01/16/2020 10:22 PM 0.000 0.000 0.000 0.008 0.311 Not Reported Not Reported
01/17/2020 09:23 AM 26.96 24.62 19.22 30.02 21.38 71.0 Not Reported 4.47 NW 1.12 NW 5.59 NW No 0.000 No Precipitation 01/16/2020 10:17 PM 01/16/2020 10:22 PM 0.000 0.000 0.000 0.008 0.311 Not Reported Not Reported
01/17/2020 09:38 AM 28.04 25.52 20.48 29.12 21.38 72.0 Not Reported 2.68 W 1.12 SW 3.58 NW No 0.000 No Precipitation 01/16/2020 10:17 PM 01/16/2020 10:22 PM 0.000 0.000 0.000 0.008 0.311 Not Reported Not Reported
01/17/2020 09:53 AM 29.84 26.96 20.84 30.02 21.38 68.0 Not Reported 3.58 S 4.47 SW 5.82 S No 0.000 No Precipitation 01/16/2020 10:17 PM 01/16/2020 10:22 PM 0.000 0.000 0.000 0.008 0.307 Not Reported Not Reported
01/17/2020 10:08 AM 30.02 26.96 20.48 31.28 21.38 67.0 Not Reported 3.58 W 2.68 W 6.71 SW No 0.000 No Precipitation 01/16/2020 10:17 PM 01/16/2020 10:22 PM 0.000 0.000 0.000 0.008 0.307 Not Reported Not Reported
01/17/2020 10:23 AM 30.38 27.32 21.20 31.28 21.38 68.0 Not Reported 2.24 SW 4.92 S 4.92 SW No 0.000 No Precipitation 01/16/2020 10:17 PM 01/16/2020 10:22 PM 0.000 0.000 0.000 0.004 0.291 Not Reported Not Reported
01/17/2020 10:38 AM 30.38 27.14 20.48 31.28 21.38 65.0 Not Reported 3.13 SE 4.92 E 4.92 E No 0.000 No Precipitation 01/16/2020 10:17 PM 01/16/2020 10:22 PM 0.000 0.000 0.000 0.004 0.276 Not Reported Not Reported
01/17/2020 10:53 AM 30.38 26.96 19.76 31.46 21.38 63.0 Not Reported 2.91 S 8.28 S 8.28 S No 0.000 No Precipitation 01/16/2020 10:17 PM 01/16/2020 10:22 PM 0.000 0.000 0.000 0.004 0.272 Not Reported Not Reported
01/17/2020 11:08 AM 30.38 26.96 19.94 32.72 21.38 64.0 Not Reported 3.58 S 2.46 SE 9.84 S No 0.000 No Precipitation 01/16/2020 10:17 PM 01/16/2020 10:22 PM 0.000 0.000 0.000 0.004 0.260 Not Reported Not Reported
01/17/2020 11:23 AM 29.84 26.42 19.58 32.72 21.38 65.0 Not Reported 3.80 S 5.82 S 6.93 S No 0.000 No Precipitation 01/16/2020 10:17 PM 01/16/2020 10:22 PM 0.000 0.000 0.000 0.000 0.252 Not Reported Not Reported
01/17/2020 11:38 AM 30.38 26.60 18.86 32.72 21.38 62.0 Not Reported 4.70 SE 4.47 S 7.38 S No 0.000 No Precipitation 01/16/2020 10:17 PM 01/16/2020 10:22 PM 0.000 0.000 0.000 0.000 0.244 Not Reported Not Reported
01/17/2020 11:53 AM 30.92 27.32 19.58 32.72 21.38 61.0 Not Reported 3.13 SW 3.58 S 5.59 SE No 0.000 No Precipitation 01/16/2020 10:17 PM 01/16/2020 10:22 PM 0.000 0.000 0.000 0.000 0.224 Not Reported Not Reported
01/17/2020 12:08 PM 30.92 27.32 19.94 32.72 21.38 62.0 Not Reported 2.24 W 0.67 S 5.14 SW No 0.000 No Precipitation 01/16/2020 10:17 PM 01/16/2020 10:22 PM 0.000 0.000 0.000 0.000 0.217 Not Reported Not Reported
01/17/2020 12:23 PM 30.92 27.14 19.76 32.72 21.38 62.0 Not Reported 2.46 S 0.45 W 4.03 E No 0.000 No Precipitation 01/16/2020 10:17 PM 01/16/2020 10:22 PM 0.000 0.000 0.000 0.000 0.205 Not Reported Not Reported
01/17/2020 12:38 PM 30.20 26.42 18.50 32.72 21.38 61.0 Not Reported 4.25 W 3.58 W 5.82 SW No 0.000 No Precipitation 01/16/2020 10:17 PM 01/16/2020 10:22 PM 0.000 0.000 0.000 0.000 0.205 Not Reported Not Reported
01/17/2020 12:53 PM 30.56 26.96 19.58 32.72 21.38 63.0 Not Reported 4.03 SW 4.03 S 6.49 SW No 0.000 No Precipitation 01/16/2020 10:17 PM 01/16/2020 10:22 PM 0.000 0.000 0.000 0.000 0.201 Not Reported Not Reported
01/17/2020 01:09 PM 32.36 28.22 20.48 32.72 21.38 61.0 Not Reported 3.80 S 3.80 S 4.70 S No 0.000 No Precipitation 01/16/2020 10:17 PM 01/16/2020 10:22 PM 0.000 0.000 0.000 0.000 0.181 Not Reported Not Reported
01/17/2020 01:23 PM 32.18 28.04 19.22 33.26 21.38 57.0 Not Reported 5.14 S 6.04 S 6.93 SE No 0.000 No Precipitation 01/16/2020 10:17 PM 01/16/2020 10:22 PM 0.000 0.000 0.000 0.000 0.165 Not Reported Not Reported
01/17/2020 01:38 PM 31.28 27.32 19.22 33.44 21.38 60.0 Not Reported 2.01 S 3.58 S 4.47 S No 0.000 No Precipitation 01/16/2020 10:17 PM 01/16/2020 10:22 PM 0.000 0.000 0.000 0.000 0.150 Not Reported Not Reported
01/17/2020 01:53 PM 31.64 27.68 19.58 33.44 21.38 60.0 Not Reported 0.45 SW 2.91 SE 3.58 S No 0.000 No Precipitation 01/16/2020 10:17 PM 01/16/2020 10:22 PM 0.000 0.000 0.000 0.000 0.142 Not Reported Not Reported
01/17/2020 02:08 PM 31.82 28.04 20.30 33.44 21.38 62.0 Not Reported 1.57 S 1.34 S 3.13 S No 0.000 No Precipitation 01/16/2020 10:17 PM 01/16/2020 10:22 PM 0.000 0.000 0.000 0.000 0.130 Not Reported Not Reported
01/17/2020 02:23 PM 32.00 28.22 20.30 33.44 21.38 61.0 Not Reported 0.00 NW 1.34 S 1.57 NE No 0.000 No Precipitation 01/16/2020 10:17 PM 01/16/2020 10:22 PM 0.000 0.000 0.000 0.000 0.118 Not Reported Not Reported
01/17/2020 02:38 PM 30.92 27.86 22.28 33.44 21.38 69.0 Not Reported 2.24 NE 0.89 NE 2.46 E No 0.000 No Precipitation 01/16/2020 10:17 PM 01/16/2020 10:22 PM 0.000 0.000 0.000 0.000 0.118 Not Reported Not Reported
01/17/2020 02:53 PM 31.10 28.40 23.36 33.44 21.38 72.0 Not Reported 1.34 NE 0.89 NW 4.25 NE No 0.000 No Precipitation 01/16/2020 10:17 PM 01/16/2020 10:22 PM 0.000 0.000 0.000 0.000 0.110 Not Reported Not Reported
01/17/2020 03:08 PM 31.64 28.58 22.46 33.44 21.38 68.0 Not Reported 0.00 SE 0.00 E 1.57 SE No 0.000 No Precipitation 01/16/2020 10:17 PM 01/16/2020 10:22 PM 0.000 0.000 0.000 0.000 0.102 Not Reported Not Reported
01/17/2020 03:23 PM 30.92 28.22 23.18 33.44 21.38 72.0 Not Reported 0.67 SE 0.00 S 2.68 SE No 0.000 No Precipitation 01/16/2020 10:17 PM 01/16/2020 10:22 PM 0.000 0.000 0.000 0.000 0.091 Not Reported Not Reported
01/17/2020 03:38 PM 30.20 27.86 23.54 33.44 21.38 75.0 Not Reported 0.89 SE 1.79 S 1.79 S No 0.000 No Precipitation 01/16/2020 10:17 PM 01/16/2020 10:22 PM 0.000 0.000 0.000 0.000 0.083 Not Reported Not Reported
01/17/2020 03:53 PM 30.20 27.50 22.28 33.44 21.38 71.0 Not Reported 1.12 SE 1.57 SW 2.01 SE No 0.000 No Precipitation 01/16/2020 10:17 PM 01/16/2020 10:22 PM 0.000 0.000 0.000 0.000 0.079 Not Reported Not Reported
01/17/2020 04:08 PM 29.84 27.86 24.44 33.44 21.38 80.0 Not Reported 0.22 NW 0.00 NW 1.57 NW No 0.000 No Precipitation 01/16/2020 10:17 PM 01/16/2020 10:22 PM 0.000 0.000 0.000 0.000 0.075 Not Reported Not Reported
01/17/2020 04:23 PM 29.84 27.68 23.72 33.44 21.38 77.0 Not Reported 0.00 SW 1.12 NW 2.01 NW No 0.000 No Precipitation 01/16/2020 10:17 PM 01/16/2020 10:22 PM 0.000 0.000 0.000 0.000 0.071 Not Reported Not Reported
01/17/2020 04:38 PM 28.94 26.96 23.18 33.44 21.38 78.0 Not Reported 2.46 NW 1.12 W 3.36 N No 0.000 No Precipitation 01/16/2020 10:17 PM 01/16/2020 10:22 PM 0.000 0.000 0.000 0.000 0.067 Not Reported Not Reported
01/17/2020 04:53 PM 29.30 27.68 25.16 33.44 21.38 85.0 Not Reported 0.89 NW 1.57 NW 2.01 W No 0.000 No Precipitation 01/16/2020 10:17 PM 01/16/2020 10:22 PM 0.000 0.000 0.000 0.000 0.063 Not Reported Not Reported
01/17/2020 05:08 PM 28.58 27.50 25.34 33.44 21.38 87.0 Not Reported 1.57 W 1.34 NW 2.91 NW No 0.000 No Precipitation 01/16/2020 10:17 PM 01/16/2020 10:22 PM 0.000 0.000 0.000 0.000 0.063 Not Reported Not Reported
01/17/2020 05:23 PM 28.40 26.96 24.08 33.44 21.38 83.0 Not Reported 0.22 NW 0.00 W 1.57 W No 0.000 No Precipitation 01/16/2020 10:17 PM 01/16/2020 10:22 PM 0.000 0.000 0.000 0.000 0.059 Not Reported Not Reported
01/17/2020 05:38 PM 27.50 26.42 24.62 33.44 21.38 89.0 Not Reported 0.00 N 0.00 NE 0.89 NE No 0.000 No Precipitation 01/16/2020 10:17 PM 01/16/2020 10:22 PM 0.000 0.000 0.000 0.000 0.059 Not Reported Not Reported
01/17/2020 05:53 PM 27.14 26.42 24.98 33.44 21.38 91.0 Not Reported 1.12 NW 1.12 NW 1.34 NW No 0.000 No Precipitation 01/16/2020 10:17 PM 01/16/2020 10:22 PM 0.000 0.000 0.000 0.000 0.059 Not Reported Not Reported
01/17/2020 06:08 PM 26.24 25.52 24.08 33.44 21.38 91.0 Not Reported 0.00 N 0.00 NW 0.00 NW No 0.000 No Precipitation 01/16/2020 10:17 PM 01/16/2020 10:22 PM 0.000 0.000 0.000 0.000 0.055 Not Reported Not Reported
01/17/2020 06:23 PM 26.24 25.70 24.44 33.44 21.38 92.0 Not Reported 0.00 N 0.00 N 1.57 N No 0.000 No Precipitation 01/16/2020 10:17 PM 01/16/2020 10:22 PM 0.000 0.000 0.000 0.000 0.055 Not Reported Not Reported
01/17/2020 06:38 PM 26.06 25.34 24.08 33.44 21.38 92.0 Not Reported 0.22 NW 0.00 NW 0.67 N No 0.000 No Precipitation 01/16/2020 10:17 PM 01/16/2020 10:22 PM 0.000 0.000 0.000 0.000 0.055 Not Reported Not Reported
01/17/2020 06:53 PM 26.60 26.06 24.98 33.44 21.38 93.0 Not Reported 0.00 N 0.00 SW 0.00 W No 0.000 No Precipitation 01/16/2020 10:17 PM 01/16/2020 10:22 PM 0.000 0.000 0.000 0.000 0.051 Not Reported Not Reported
01/17/2020 07:08 PM 26.24 25.88 24.80 33.44 21.38 93.0 Not Reported 0.00 N 0.00 S 0.00 W No 0.000 No Precipitation 01/16/2020 10:17 PM 01/16/2020 10:22 PM 0.000 0.000 0.000 0.000 0.043 Not Reported Not Reported
01/17/2020 07:23 PM 26.24 25.70 24.62 33.44 21.38 93.0 Not Reported 0.67 NW 1.12 N 1.12 NW No 0.000 No Precipitation 01/16/2020 10:17 PM 01/16/2020 10:22 PM 0.000 0.000 0.000 0.000 0.039 Not Reported Not Reported
01/17/2020 07:38 PM 25.88 25.34 24.44 33.44 21.38 94.0 Not Reported 0.45 NE 0.00 N 1.34 E No 0.000 No Precipitation 01/16/2020 10:17 PM 01/16/2020 10:22 PM 0.000 0.000 0.000 0.000 0.031 Not Reported Not Reported
01/17/2020 07:54 PM 25.34 24.80 23.90 33.44 21.38 94.0 Not Reported 0.00 N 0.00 NE 1.12 NE No 0.000 No Precipitation 01/16/2020 10:17 PM 01/16/2020 10:22 PM 0.000 0.000 0.000 0.000 0.020 Not Reported Not Reported
01/17/2020 08:08 PM 25.34 24.98 24.26 33.44 21.38 94.0 Not Reported 0.00 N 0.00 W 0.89 W No 0.000 No Precipitation 01/16/2020 10:17 PM 01/16/2020 10:22 PM 0.000 0.000 0.000 0.000 0.020 Not Reported Not Reported
01/17/2020 08:23 PM 25.70 25.34 24.44 33.44 21.38 95.0 Not Reported 0.89 NW 0.00 NW 1.57 NW No 0.000 No Precipitation 01/16/2020 10:17 PM 01/16/2020 10:22 PM 0.000 0.000 0.000 0.000 0.020 Not Reported Not Reported
01/17/2020 08:38 PM 25.52 24.98 24.26 33.44 21.38 95.0 Not Reported 0.45 SW 0.67 NW 0.67 NW No 0.000 No Precipitation 01/16/2020 10:17 PM 01/16/2020 10:22 PM 0.000 0.000 0.000 0.000 0.016 Not Reported Not Reported
01/17/2020 08:53 PM 25.52 25.16 24.26 33.44 21.38 95.0 Not Reported 0.00 N 0.67 NW 0.67 NW No 0.000 No Precipitation 01/16/2020 10:17 PM 01/16/2020 10:22 PM 0.000 0.000 0.000 0.000 0.008 Not Reported Not Reported
01/17/2020 09:08 PM 25.70 25.34 24.62 33.44 21.38 95.0 Not Reported 0.67 W 0.67 W 0.67 W No 0.000 No Precipitation 01/16/2020 10:17 PM 01/16/2020 10:22 PM 0.000 0.000 0.000 0.000 0.008 Not Reported Not Reported
01/17/2020 09:23 PM 25.52 25.16 24.44 33.44 21.38 95.0 Not Reported 0.00 N 0.00 W 0.00 W No 0.000 No Precipitation 01/16/2020 10:17 PM 01/16/2020 10:22 PM 0.000 0.000 0.000 0.000 0.008 Not Reported Not Reported
01/17/2020 09:38 PM 25.52 25.16 24.44 33.44 21.38 95.0 Not Reported 0.00 N 0.00 NW 0.67 S No 0.000 No Precipitation 01/16/2020 10:17 PM 01/16/2020 10:22 PM 0.000 0.000 0.000 0.000 0.008 Not Reported Not Reported
01/17/2020 09:53 PM 25.70 25.34 24.62 33.44 21.38 95.0 Not Reported 0.00 N 0.00 W 1.34 W No 0.000 No Precipitation 01/16/2020 10:17 PM 01/16/2020 10:22 PM 0.000 0.000 0.000 0.000 0.008 Not Reported Not Reported
01/17/2020 10:08 PM 26.06 25.70 24.80 33.44 21.38 95.0 Not Reported 0.67 W 0.67 NW 2.01 SE No 0.000 No Precipitation 01/16/2020 10:17 PM 01/16/2020 10:22 PM 0.000 0.000 0.000 0.000 0.008 Not Reported Not Reported
01/17/2020 10:23 PM 26.24 25.88 24.98 33.44 21.38 95.0 Not Reported 1.34 NW 1.12 W 2.01 NW No 0.000 No Precipitation 01/16/2020 10:17 PM 01/16/2020 10:22 PM 0.000 0.000 0.000 0.000 0.004 Not Reported Not Reported
01/17/2020 10:38 PM 26.06 25.88 24.98 33.44 21.38 95.0 Not Reported 0.89 W 0.00 W 2.91 S No 0.000 No Precipitation 01/16/2020 10:17 PM 01/16/2020 10:22 PM 0.000 0.000 0.000 0.000 0.004 Not Reported Not Reported
01/17/2020 10:53 PM 26.06 25.70 24.62 33.44 21.38 93.0 Not Reported 0.67 S 1.57 S 1.57 S No 0.000 No Precipitation 01/16/2020 10:17 PM 01/16/2020 10:22 PM 0.000 0.000 0.000 0.000 0.004 Not Reported Not Reported
01/17/2020 11:08 PM 26.42 25.70 24.80 33.44 21.38 93.0 Not Reported 0.00 N 0.00 NW 2.24 NW No 0.000 No Precipitation 01/16/2020 10:17 PM 01/16/2020 10:22 PM 0.000 0.000 0.000 0.000 0.004 Not Reported Not Reported
01/17/2020 11:23 PM 26.24 25.70 24.44 33.44 21.38 92.0 Not Reported 0.00 N 0.00 S 0.89 SE No 0.000 No Precipitation 01/16/2020 10:17 PM 01/16/2020 10:22 PM 0.000 0.000 0.000 0.000 0.000 Not Reported Not Reported
01/17/2020 11:38 PM 26.06 25.52 24.62 33.44 21.38 93.0 Not Reported 0.22 NE 0.00 NE 1.57 N No 0.000 No Precipitation 01/16/2020 10:17 PM 01/16/2020 10:22 PM 0.000 0.000 0.000 0.000 0.000 Not Reported Not Reported
01/17/2020 11:53 PM 26.06 25.52 24.62 33.44 21.38 93.0 Not Reported 0.00 N 0.00 SE 0.00 SE No 0.000 No Precipitation 01/16/2020 10:17 PM 01/16/2020 10:22 PM 0.000 0.000 0.000 0.000 0.000 Not Reported Not Reported